Boston College, Massachusetts
Current Conditions -  °F | °C
As of 1:54 PM on Tuesday 21 Oct 2014 (Local Time) from KBOS Reporting Station
Light Rain Light Rain  
Wind Chill: 59°   Ceiling: 4000
Heat Index: 59°   Visibility: 10mi
Dew Point: 55°   Wind: 10mph
Humidity: 87%   Direction: 90°E
Pressure: 29.92"   Gusts: NA
Location:  42.3163°N, 71.1603°W
Report Text: KBOS 211754Z 09009KT 10SM -RA SCT024 BKN040 BKN095 15/13 A2992 RMK AO2 RAB44 SLP130 P0000 60000 T01500128 10167 20133 58016
Loading
Personal Weather Stations






























Interactive Weather Map
Tropical Storm Tracking
New forecast layout! Learn more

10-Day Weather Forecast

Advertisements
Track Severe Weather on mobile